METAR Reports From Nearby Airports

 

KLUD - Decatur, Texas, USA
Distance from Wildwood: OSO 5mi, 8km
aktuell: Dec 04, 2021 1:55am
klar
klar
 Wind von calm
Wind: Windstill
Temperatur: 64°F , 18°C
Taupunkt: 61°F , 16°C
Luftfeuchte: 88%
Luftdruck: 29.97 inHg , 1014.9 hPa
Clouds: klar
Visibility: 7 miles , 11 km
2021/12/04 07:55 KLUD 040755Z AUTO 00000KT 7SM CLR 18/16 A2997 RMK AO2 T01760163
KXBP - Bridgeport, Texas, USA
Distance from Wildwood: WSW 11mi, 18km
aktuell: Dec 04, 2021 1:55am
Nearby thunderstorm, teilweise bewölkt
Nearby thunderstorm, teilweise bewölkt
 Wind von calm
Wind: Windstill
Temperatur: 64°F , 18°C
Taupunkt: 63°F , 17°C
Luftfeuchte: 94%
Luftdruck: 29.97 inHg , 1014.9 hPa
Zusammenfassung: Nearby Thunderstorm
Clouds: Partly Cloudy
Visibility: 10 miles , 16 km
Cloud details: Partly Cloudy 12000 ft
2021/12/04 07:55 KXBP 040755Z AUTO 00000KT 10SM VCTS SCT120 18/17 A2997 RMK AO2 LTG DSNT S T01810167
 
K0F2 - Bowie, Texas, USA
Distance from Wildwood: NNW 24mi, 39km
aktuell: Dec 04, 2021 2:15am
Mist, geschlossene Wolkendecke
Mist, geschlossene Wolkendecke
 Wind von calm
Wind: Windstill
Temperatur: 61°F , 16°C
Taupunkt: 59°F , 15°C
Luftfeuchte: 94%
Luftdruck: 29.98 inHg , 1015.2 hPa
Zusammenfassung: Mist
Clouds: geschlossene Wolkendecke
Visibility: 1 mile , 2 km
Cloud details: geschlossene Wolkendecke 200 ft
2021/12/04 08:15 K0F2 040815Z AUTO 00000KT 1SM BR OVC002 16/15 A2998 RMK AO2 T01560153
KDTO - Denton, Texas, USA
Distance from Wildwood: O 27mi, 44km
aktuell: Dec 04, 2021 1:53am
klar
klar
 Wind von SSO
Wind: SSO 12 mph , 19 km/h
Temperatur: 63°F , 17°C
Taupunkt: 63°F , 17°C
Luftfeuchte: 100%
Luftdruck: 29.97 inHg , 1014.9 hPa
Clouds: klar
Visibility: 8 miles , 13 km
2021/12/04 07:53 KDTO 040753Z AUTO 15010KT 8SM CLR 17/17 A2997 RMK AO2 SLP142 T01720167
 
KAFW - Ft Worth/Allianc, Texas, USA
Distance from Wildwood: SO 29mi, 46km
aktuell: Dec 04, 2021 1:53am
Mostly Cloudy
Mostly Cloudy
 Wind von S
Wind: S 13 mph , 20 km/h
Temperatur: 66°F , 19°C
Taupunkt: 63°F , 17°C
Luftfeuchte: 88%
Luftdruck: 29.96 inHg , 1014.6 hPa
Clouds: Mostly Cloudy
Visibility: 10 miles , 16 km
Cloud details: Few Clouds 2400 ft
Mostly Cloudy 12000 ft
Mostly Cloudy 25000 ft
2021/12/04 07:53 KAFW 040753Z 18011KT 10SM FEW024 BKN120 BKN250 19/17 A2996 RMK AO2 SLP139 FRQ LTGIC DSNT SW CB DSNT SW MOV E T01890172
KFTW - Fort Worth, Texas, USA
Distance from Wildwood: SSO 34mi, 55km
aktuell: Dec 04, 2021 1:53am
Few Clouds
Few Clouds
 Wind von S
Wind: S 13 mph , 20 km/h
Temperatur: 64°F , 18°C
Taupunkt: 63°F , 17°C
Luftfeuchte: 94%
Luftdruck: 29.97 inHg , 1014.9 hPa
Clouds: Few Clouds
Visibility: 10 miles , 16 km
Cloud details: Few Clouds 12000 ft
2021/12/04 07:53 KFTW 040753Z 17011KT 10SM FEW120 18/17 A2997 RMK AO2 LTG DSNT S-W SLP142 T01780167
 
KNFW - Fort Worth Nas, Texas, USA
Distance from Wildwood: SSO 36mi, 58km
aktuell: Dec 04, 2021 1:52am
Thunderstorm, stark bewölkt
Thunderstorm, stark bewölkt
 Wind von S
Wind: S 8 mph , 13 km/h
Luftdruck: 29.98 inHg , 1015.2 hPa
Zusammenfassung: Thunderstorm
Clouds: Mostly Cloudy
Visibility: 10 miles , 16 km
Cloud details: Mostly Cloudy 12000 ft
2021/12/04 07:52 KNFW 040752Z 19007KT 10SM TS BKN120 A2998 RMK AO2 TSE18B42B51 SLP137 CHINO S VISNO S $
KGLE - Gainesville, Texas, USA
Distance from Wildwood: NO 38mi, 61km
aktuell: Dec 04, 2021 2:15am
Fog, geschlossene Wolkendecke
Fog, geschlossene Wolkendecke
 Wind von calm
Wind: Windstill
Temperatur: 59°F , 15°C
Taupunkt: 59°F , 15°C
Luftfeuchte: 100%
Luftdruck: 30.00 inHg , 1015.9 hPa
Zusammenfassung: Fog
Clouds: geschlossene Wolkendecke
Visibility: less than 1/4 mile , 0.4 km
Cloud details: geschlossene Wolkendecke 300 ft
2021/12/04 08:15 KGLE 040815Z AUTO 00000KT M1/4SM FG OVC003 15/15 A3000 RMK AO2 T01510150
 
KMWL - Mineral Wells, Texas, USA
Distance from Wildwood: SW 41mi, 65km
aktuell: Dec 04, 2021 1:53am
Partly Cloudy
Partly Cloudy
 Wind von SO
Wind: SO 12 mph , 19 km/h
Temperatur: 64°F , 18°C
Taupunkt: 61°F , 16°C
Luftfeuchte: 88%
Luftdruck: 29.98 inHg , 1015.2 hPa
Clouds: Partly Cloudy
Visibility: 10 miles , 16 km
Cloud details: Partly Cloudy 11000 ft
2021/12/04 07:53 KMWL 040753Z AUTO 14010KT 10SM SCT110 18/16 A2998 RMK AO2 LTG DSNT SE RAE0656B08E43 TSE0657 SLP140 P0001 T01780161
KDFW - Dallas/Ft Worth, Texas, USA
Distance from Wildwood: OSO 45mi, 73km
aktuell: Dec 04, 2021 1:53am
Partly Cloudy
Partly Cloudy
 Wind von SSW
Wind: SSW 7 mph , 11 km/h
Temperatur: 64°F , 18°C
Taupunkt: 63°F , 17°C
Luftfeuchte: 94%
Luftdruck: 29.98 inHg , 1015.2 hPa
Clouds: Partly Cloudy
Visibility: 10 miles , 16 km
Cloud details: Few Clouds 1000 ft
Partly Cloudy 12000 ft
Partly Cloudy 25000 ft
2021/12/04 07:53 KDFW 040753Z 20006KT 10SM FEW010 SCT120 SCT250 18/17 A2998 RMK AO2 SLP146 OCNL LTGIC SW CB DSNT SW-W MOV E T01780167